createdAt,value
2019-05-26T00:00:16.313Z,8.70
2019-05-26T00:02:45.990Z,8.70
2019-05-26T00:05:14.896Z,8.70
2019-05-26T00:07:43.748Z,8.70
2019-05-26T00:10:13.677Z,8.70
2019-05-26T00:12:42.728Z,8.60
2019-05-26T00:15:12.038Z,8.60
2019-05-26T00:17:40.904Z,8.50
2019-05-26T00:20:10.058Z,8.50
2019-05-26T00:22:39.267Z,8.50
2019-05-26T00:25:09.203Z,8.40
2019-05-26T00:27:38.114Z,8.40
2019-05-26T00:30:11.945Z,8.40
2019-05-26T00:32:40.811Z,8.40
2019-05-26T00:35:10.087Z,8.40
2019-05-26T00:37:49.120Z,8.40
2019-05-26T00:40:10.822Z,8.40
2019-05-26T00:42:39.769Z,8.40
2019-05-26T00:45:09.260Z,8.40
2019-05-26T00:47:38.152Z,8.40
2019-05-26T00:50:07.991Z,8.40
2019-05-26T00:52:38.173Z,8.40
2019-05-26T00:55:10.726Z,8.50
2019-05-26T00:57:39.597Z,8.50
2019-05-26T01:00:12.170Z,8.50
2019-05-26T01:02:41.026Z,8.50
2019-05-26T01:05:12.607Z,8.50
2019-05-26T01:07:41.790Z,8.50
2019-05-26T01:10:10.858Z,8.60
2019-05-26T01:12:39.692Z,8.60
2019-05-26T01:15:09.699Z,8.50
2019-05-26T01:17:38.609Z,8.60
2019-05-26T01:20:09.210Z,8.60
2019-05-26T01:22:38.109Z,8.60
2019-05-26T01:25:07.954Z,8.60
2019-05-26T01:27:36.943Z,8.60
2019-05-26T01:30:09.684Z,8.60
2019-05-26T01:32:38.525Z,8.60
2019-05-26T01:35:11.267Z,8.60
2019-05-26T01:37:41.901Z,8.60
2019-05-26T01:40:10.854Z,8.60
2019-05-26T01:42:39.768Z,8.60
2019-05-26T01:45:09.965Z,8.60
2019-05-26T01:47:38.765Z,8.60
2019-05-26T01:50:09.236Z,8.60
2019-05-26T01:52:38.380Z,8.60
2019-05-26T01:55:07.263Z,8.60
2019-05-26T01:57:36.125Z,8.60
2019-05-26T02:00:06.489Z,8.60
2019-05-26T02:02:35.833Z,8.50
2019-05-26T02:05:05.774Z,8.50
2019-05-26T02:07:34.636Z,8.50
2019-05-26T02:10:04.986Z,8.50
2019-05-26T02:12:33.820Z,8.50
2019-05-26T02:15:02.675Z,8.50
2019-05-26T02:17:31.567Z,8.50
2019-05-26T02:20:00.415Z,8.50
2019-05-26T02:22:29.255Z,8.50
2019-05-26T02:24:58.126Z,8.50
2019-05-26T02:27:26.957Z,8.50
2019-05-26T02:29:56.191Z,8.50
2019-05-26T02:32:25.378Z,8.50
2019-05-26T02:34:54.267Z,8.50
2019-05-26T02:37:23.600Z,8.50
2019-05-26T02:39:52.448Z,8.50
2019-05-26T02:42:21.357Z,8.50
2019-05-26T02:44:50.572Z,8.40
2019-05-26T02:47:19.383Z,8.40
2019-05-26T02:49:48.251Z,8.40
2019-05-26T02:52:17.537Z,8.40
2019-05-26T02:54:46.748Z,8.40
2019-05-26T02:57:16.257Z,8.40
2019-05-26T02:59:45.211Z,8.40
2019-05-26T03:02:14.111Z,8.40
2019-05-26T03:04:43.307Z,8.40
2019-05-26T03:07:13.681Z,8.30
2019-05-26T03:09:44.363Z,8.30
2019-05-26T03:12:13.249Z,8.30
2019-05-26T03:14:43.980Z,8.30
2019-05-26T03:17:12.828Z,8.20
2019-05-26T03:19:42.490Z,8.20
2019-05-26T03:22:14.979Z,8.20
2019-05-26T03:24:45.186Z,8.20
2019-05-26T03:27:14.365Z,8.20
2019-05-26T03:29:43.208Z,8.10
2019-05-26T03:32:12.568Z,8.10
2019-05-26T03:34:41.424Z,8.10
2019-05-26T03:37:10.262Z,8.10
2019-05-26T03:39:45.496Z,8.00
2019-05-26T03:42:09.659Z,8.00
2019-05-26T03:44:38.515Z,8.10
2019-05-26T03:47:07.416Z,8.00
2019-05-26T03:49:36.277Z,8.00
2019-05-26T03:52:05.847Z,8.10
2019-05-26T03:54:34.716Z,8.00
2019-05-26T03:57:03.638Z,8.00
2019-05-26T03:59:32.485Z,8.10
2019-05-26T04:02:01.350Z,8.00
2019-05-26T04:04:30.229Z,8.00
2019-05-26T04:06:59.171Z,8.00
2019-05-26T04:09:28.043Z,8.00
2019-05-26T04:11:56.962Z,8.00
2019-05-26T04:14:25.882Z,8.00
2019-05-26T04:16:56.510Z,8.00
2019-05-26T04:19:25.604Z,8.00
2019-05-26T04:21:54.506Z,8.00
2019-05-26T04:24:23.627Z,8.00
2019-05-26T04:26:52.644Z,8.00
2019-05-26T04:29:21.479Z,8.00
2019-05-26T04:31:50.665Z,7.90
2019-05-26T04:34:19.529Z,7.90
2019-05-26T04:36:48.357Z,7.90
2019-05-26T04:39:17.249Z,7.90
2019-05-26T04:41:46.734Z,7.90
2019-05-26T04:44:15.547Z,8.00
2019-05-26T04:46:44.427Z,8.00
2019-05-26T04:49:13.281Z,8.00
2019-05-26T04:51:42.476Z,8.00
2019-05-26T04:54:11.697Z,8.00
2019-05-26T04:56:40.631Z,8.00
2019-05-26T04:59:09.532Z,8.00
2019-05-26T05:01:38.377Z,8.00
2019-05-26T05:04:07.222Z,8.00
2019-05-26T05:06:36.424Z,8.10
2019-05-26T05:09:07.678Z,8.10
2019-05-26T05:11:36.528Z,8.00
2019-05-26T05:14:05.514Z,8.00
2019-05-26T05:16:34.348Z,8.00
2019-05-26T05:19:03.185Z,7.90
2019-05-26T05:21:32.102Z,7.90
2019-05-26T05:24:00.981Z,7.90
2019-05-26T05:26:30.209Z,7.90
2019-05-26T05:28:59.114Z,7.80
2019-05-26T05:31:28.261Z,7.80
2019-05-26T05:33:57.085Z,7.80
2019-05-26T05:36:26.400Z,7.80
2019-05-26T05:38:55.271Z,7.80
2019-05-26T05:41:24.127Z,7.70
2019-05-26T05:43:53.037Z,7.70
2019-05-26T05:46:22.277Z,7.70
2019-05-26T05:48:51.188Z,7.70
2019-05-26T05:51:20.141Z,7.70
2019-05-26T05:53:48.997Z,7.70
2019-05-26T05:56:17.921Z,7.60
2019-05-26T05:58:47.045Z,7.70
2019-05-26T06:01:15.901Z,7.70
2019-05-26T06:03:44.797Z,7.60
2019-05-26T06:06:13.633Z,7.70
2019-05-26T06:08:42.495Z,7.70
2019-05-26T06:11:16.410Z,7.70
2019-05-26T06:13:41.910Z,7.80
2019-05-26T06:16:10.824Z,7.80
2019-05-26T06:18:39.670Z,7.80
2019-05-26T06:21:08.490Z,7.70
2019-05-26T06:23:37.419Z,7.80
2019-05-26T06:26:06.199Z,7.80
2019-05-26T06:28:35.075Z,7.80
2019-05-26T06:31:04.123Z,7.80
2019-05-26T06:33:33.003Z,7.80
2019-05-26T06:36:01.921Z,7.80
2019-05-26T06:38:30.772Z,7.80
2019-05-26T06:40:59.692Z,7.80
2019-05-26T06:43:28.861Z,7.80
2019-05-26T06:45:57.748Z,7.90
2019-05-26T06:48:27.148Z,7.90
2019-05-26T06:50:56.182Z,7.90
2019-05-26T06:53:25.069Z,7.90
2019-05-26T06:55:53.912Z,7.90
2019-05-26T06:58:22.880Z,8.00
2019-05-26T07:00:52.059Z,8.00
2019-05-26T07:03:20.877Z,8.00
2019-05-26T07:05:49.803Z,8.00
2019-05-26T07:08:18.658Z,8.00
2019-05-26T07:10:47.775Z,8.00
2019-05-26T07:13:16.680Z,8.00
2019-05-26T07:15:45.520Z,8.00
2019-05-26T07:18:14.449Z,8.00
2019-05-26T07:20:43.366Z,8.00
2019-05-26T07:23:12.380Z,8.00
2019-05-26T07:25:41.336Z,8.00
2019-05-26T07:28:10.429Z,8.00
2019-05-26T07:30:39.287Z,8.00
2019-05-26T07:33:08.266Z,8.00
2019-05-26T07:35:37.154Z,8.00
2019-05-26T07:38:05.976Z,8.00
2019-05-26T07:40:34.838Z,8.00
2019-05-26T07:43:03.875Z,8.10
2019-05-26T07:45:32.710Z,8.10
2019-05-26T07:48:01.626Z,8.10
2019-05-26T07:50:30.667Z,8.20
2019-05-26T07:52:59.542Z,8.20
2019-05-26T07:55:28.738Z,8.20
2019-05-26T07:57:57.601Z,8.20
2019-05-26T08:00:26.654Z,8.20
2019-05-26T08:02:55.669Z,8.20
2019-05-26T08:05:24.633Z,8.20
2019-05-26T08:08:09.429Z,8.30
2019-05-26T08:10:24.970Z,8.30
2019-05-26T08:12:53.863Z,8.30
2019-05-26T08:15:22.863Z,8.30
2019-05-26T08:17:52.142Z,8.30
2019-05-26T08:20:21.117Z,8.30
2019-05-26T08:22:49.981Z,8.30
2019-05-26T08:25:19.012Z,8.30
2019-05-26T08:27:47.880Z,8.30
2019-05-26T08:30:16.831Z,8.30
2019-05-26T08:32:45.730Z,8.30
2019-05-26T08:35:14.669Z,8.30
2019-05-26T08:37:44.440Z,8.40
2019-05-26T08:40:19.176Z,8.40
2019-05-26T08:42:52.659Z,8.40
2019-05-26T08:45:23.147Z,8.50
2019-05-26T08:47:52.785Z,8.60
2019-05-26T08:50:22.274Z,8.60
2019-05-26T08:52:51.109Z,8.60
2019-05-26T08:55:19.963Z,8.60
2019-05-26T08:57:49.226Z,8.60
2019-05-26T09:00:22.188Z,8.70
2019-05-26T09:02:51.117Z,8.70
2019-05-26T09:05:19.966Z,8.70
2019-05-26T09:07:48.821Z,8.80
2019-05-26T09:10:17.859Z,8.80
2019-05-26T09:12:59.773Z,8.80
2019-05-26T09:15:18.345Z,8.80
2019-05-26T09:17:47.506Z,8.80
2019-05-26T09:20:17.255Z,8.70
2019-05-26T09:22:46.146Z,8.70
2019-05-26T09:25:15.075Z,8.70
2019-05-26T09:27:43.945Z,8.70
2019-05-26T09:30:13.009Z,8.60
2019-05-26T09:32:41.889Z,8.70
2019-05-26T09:35:10.854Z,8.60
2019-05-26T09:37:40.077Z,8.70
2019-05-26T09:40:10.074Z,8.70
2019-05-26T09:42:38.949Z,8.70
2019-05-26T09:45:09.305Z,8.60
2019-05-26T09:47:38.605Z,8.60
2019-05-26T09:50:08.537Z,8.70
2019-05-26T09:52:37.923Z,8.70
2019-05-26T09:55:10.862Z,8.60
2019-05-26T09:57:40.360Z,8.60
2019-05-26T10:00:15.877Z,8.60
2019-05-26T10:02:44.131Z,8.70
2019-05-26T10:05:14.376Z,8.70
2019-05-26T10:07:43.200Z,8.70
2019-05-26T10:10:12.187Z,8.70
2019-05-26T10:12:41.096Z,8.70
2019-05-26T10:15:10.476Z,8.80
2019-05-26T10:17:39.273Z,8.80
2019-05-26T10:20:09.166Z,8.90
2019-05-26T10:22:38.002Z,9.00
2019-05-26T10:25:07.505Z,9.00
2019-05-26T10:27:36.360Z,9.00
2019-05-26T10:30:14.197Z,9.00
2019-05-26T10:32:43.027Z,9.10
2019-05-26T10:35:13.723Z,9.10
2019-05-26T10:37:42.582Z,9.10
2019-05-26T10:40:13.542Z,9.10
2019-05-26T10:42:43.054Z,9.00
2019-05-26T10:45:12.495Z,8.90
2019-05-26T10:47:41.391Z,8.90
2019-05-26T10:50:11.278Z,8.90
2019-05-26T10:52:40.185Z,8.90
2019-05-26T10:55:09.331Z,8.90
2019-05-26T10:57:38.595Z,9.00
2019-05-26T11:00:08.934Z,8.90
2019-05-26T11:02:37.801Z,8.90
2019-05-26T11:05:08.139Z,8.90
2019-05-26T11:07:36.992Z,9.00
2019-05-26T11:10:08.421Z,8.90
2019-05-26T11:12:37.314Z,8.90
2019-05-26T11:15:08.680Z,8.90
2019-05-26T11:17:37.509Z,9.00
2019-05-26T11:20:08.760Z,9.00
2019-05-26T11:22:37.640Z,9.00
2019-05-26T11:25:08.883Z,9.00
2019-05-26T11:27:38.343Z,9.00
2019-05-26T11:30:12.451Z,8.90
2019-05-26T11:32:41.303Z,8.90
2019-05-26T11:35:11.105Z,8.90
2019-05-26T11:37:39.949Z,8.90
2019-05-26T11:40:09.274Z,8.90
2019-05-26T11:42:38.153Z,9.00
2019-05-26T11:45:12.752Z,9.00
2019-05-26T11:47:41.582Z,9.00
2019-05-26T11:50:11.243Z,9.10
2019-05-26T11:52:40.458Z,9.00
2019-05-26T11:55:09.420Z,9.00
2019-05-26T11:57:38.310Z,9.00
2019-05-26T12:00:09.701Z,9.00
2019-05-26T12:02:39.449Z,9.00
2019-05-26T12:05:08.617Z,9.10
2019-05-26T12:07:37.638Z,9.10
2019-05-26T12:10:08.194Z,9.20
2019-05-26T12:12:37.037Z,9.20
2019-05-26T12:15:08.527Z,9.10
2019-05-26T12:17:37.376Z,9.10
2019-05-26T12:20:06.542Z,9.00
2019-05-26T12:22:36.945Z,9.00
2019-05-26T12:25:08.326Z,9.10
2019-05-26T12:27:37.172Z,9.10
2019-05-26T12:30:09.836Z,9.10
2019-05-26T12:32:38.920Z,9.10
2019-05-26T12:35:13.776Z,9.20
2019-05-26T12:37:43.039Z,9.20
2019-05-26T12:40:13.557Z,9.20
2019-05-26T12:42:42.827Z,9.30
2019-05-26T12:45:12.595Z,9.30
2019-05-26T12:47:41.450Z,9.30
2019-05-26T12:50:11.017Z,9.20
2019-05-26T12:52:39.859Z,9.20
2019-05-26T12:55:10.017Z,9.20
2019-05-26T12:57:39.091Z,9.20
2019-05-26T13:00:09.795Z,9.10
2019-05-26T13:02:38.703Z,9.10
2019-05-26T13:05:08.715Z,9.20
2019-05-26T13:07:37.672Z,9.10
2019-05-26T13:10:08.070Z,9.10
2019-05-26T13:12:37.305Z,9.10
2019-05-26T13:15:08.823Z,9.10
2019-05-26T13:17:38.147Z,9.10
2019-05-26T13:20:07.753Z,9.10
2019-05-26T13:22:37.450Z,9.10
2019-05-26T13:25:08.606Z,9.10
2019-05-26T13:27:37.495Z,9.10
2019-05-26T13:30:12.378Z,9.10
2019-05-26T13:32:41.395Z,9.10
2019-05-26T13:35:10.467Z,9.10
2019-05-26T13:37:39.273Z,9.00
2019-05-26T13:40:08.811Z,9.00
2019-05-26T13:42:37.783Z,9.10
2019-05-26T13:45:21.232Z,9.10
2019-05-26T13:47:38.801Z,9.10
2019-05-26T13:50:09.470Z,9.00
2019-05-26T13:52:38.487Z,9.00
2019-05-26T13:55:08.210Z,9.10
2019-05-26T13:57:37.091Z,9.10
2019-05-26T14:00:11.943Z,9.10
2019-05-26T14:02:40.880Z,9.10
2019-05-26T14:05:10.031Z,9.10
2019-05-26T14:07:38.879Z,9.10
2019-05-26T14:10:08.702Z,9.10
2019-05-26T14:12:37.721Z,9.10
2019-05-26T14:15:07.972Z,9.20
2019-05-26T14:17:38.414Z,9.20
2019-05-26T14:20:08.264Z,9.20
2019-05-26T14:22:37.935Z,9.30
2019-05-26T14:25:08.451Z,9.40
2019-05-26T14:27:37.285Z,9.50
2019-05-26T14:30:07.079Z,9.60
2019-05-26T14:32:35.917Z,9.50
2019-05-26T14:35:06.960Z,9.50
2019-05-26T14:37:35.798Z,9.50
2019-05-26T14:40:09.181Z,9.40
2019-05-26T14:42:38.056Z,9.40
2019-05-26T14:45:08.627Z,9.40
2019-05-26T14:47:37.490Z,9.30
2019-05-26T14:50:08.797Z,9.40
2019-05-26T14:52:37.704Z,9.30
2019-05-26T14:55:06.741Z,9.30
2019-05-26T14:57:35.619Z,9.30
2019-05-26T15:00:06.998Z,9.40
2019-05-26T15:02:35.958Z,9.50
2019-05-26T15:05:09.427Z,9.50
2019-05-26T15:07:38.328Z,9.50
2019-05-26T15:10:08.575Z,9.60
2019-05-26T15:12:37.543Z,9.60
2019-05-26T15:15:07.209Z,9.60
2019-05-26T15:17:36.606Z,9.60
2019-05-26T15:20:06.361Z,9.60
2019-05-26T15:22:35.357Z,9.60
2019-05-26T15:25:06.259Z,9.70
2019-05-26T15:27:35.156Z,9.70
2019-05-26T15:30:06.282Z,9.80
2019-05-26T15:32:35.215Z,9.80
2019-05-26T15:35:05.968Z,9.80
2019-05-26T15:37:34.798Z,9.80
2019-05-26T15:40:05.654Z,9.80
2019-05-26T15:42:35.202Z,9.80
2019-05-26T15:45:06.126Z,9.90
2019-05-26T15:47:34.939Z,9.90
2019-05-26T15:50:05.356Z,9.90
2019-05-26T15:52:34.316Z,10.00
2019-05-26T15:55:03.155Z,10.00
2019-05-26T15:57:32.141Z,10.00
2019-05-26T16:00:01.443Z,10.10
2019-05-26T16:02:30.329Z,10.20
2019-05-26T16:04:59.221Z,10.30
2019-05-26T16:07:28.175Z,10.30
2019-05-26T16:09:57.438Z,10.30
2019-05-26T16:12:26.336Z,10.30
2019-05-26T16:14:55.191Z,10.30
2019-05-26T16:17:24.067Z,10.30
2019-05-26T16:19:52.966Z,10.30
2019-05-26T16:22:21.814Z,10.40
2019-05-26T16:24:50.700Z,10.40
2019-05-26T16:27:20.030Z,10.40
2019-05-26T16:29:49.078Z,10.40
2019-05-26T16:32:18.859Z,10.40
2019-05-26T16:34:48.159Z,10.30
2019-05-26T16:37:17.970Z,10.40
2019-05-26T16:39:46.862Z,10.40
2019-05-26T16:42:15.703Z,10.40
2019-05-26T16:44:44.975Z,10.50
2019-05-26T16:47:14.108Z,10.50
2019-05-26T16:49:42.974Z,10.60
2019-05-26T16:52:11.925Z,10.70
2019-05-26T16:54:41.084Z,10.80
2019-05-26T16:57:09.989Z,10.90
2019-05-26T16:59:39.222Z,11.00
2019-05-26T17:02:08.452Z,11.10
2019-05-26T17:04:37.720Z,11.10
2019-05-26T17:07:06.565Z,11.10
2019-05-26T17:09:35.428Z,11.20
2019-05-26T17:12:04.550Z,11.20
2019-05-26T17:14:33.421Z,11.20
2019-05-26T17:17:14.296Z,11.30
2019-05-26T17:19:32.883Z,11.30
2019-05-26T17:22:02.022Z,11.40
2019-05-26T17:24:30.876Z,11.40
2019-05-26T17:26:59.782Z,11.40
2019-05-26T17:29:28.687Z,11.50
2019-05-26T17:31:57.553Z,11.50
2019-05-26T17:34:26.418Z,11.60
2019-05-26T17:36:55.648Z,11.50
2019-05-26T17:39:24.621Z,11.50
2019-05-26T17:41:53.525Z,11.60
2019-05-26T17:44:22.389Z,11.60
2019-05-26T17:46:51.617Z,11.50
2019-05-26T17:49:20.800Z,11.50
2019-05-26T17:51:49.674Z,11.50
2019-05-26T17:54:18.917Z,11.40
2019-05-26T17:56:47.866Z,11.40
2019-05-26T17:59:16.695Z,11.40
2019-05-26T18:01:45.872Z,11.40
2019-05-26T18:04:14.768Z,11.30
2019-05-26T18:06:43.701Z,11.30
2019-05-26T18:09:12.964Z,11.30
2019-05-26T18:11:42.221Z,11.30
2019-05-26T18:14:11.068Z,11.30
2019-05-26T18:16:40.009Z,11.30
2019-05-26T18:19:08.946Z,11.30
2019-05-26T18:21:37.826Z,11.20
2019-05-26T18:24:07.254Z,11.20
2019-05-26T18:26:36.530Z,11.20
2019-05-26T18:29:05.467Z,11.10
2019-05-26T18:31:34.728Z,11.10
2019-05-26T18:34:03.618Z,11.10
2019-05-26T18:36:32.459Z,11.10
2019-05-26T18:39:01.363Z,11.00
2019-05-26T18:41:30.229Z,11.00
2019-05-26T18:43:59.497Z,11.00
2019-05-26T18:46:28.716Z,10.90
2019-05-26T18:48:58.434Z,10.90
2019-05-26T18:51:27.329Z,10.80
2019-05-26T18:53:56.672Z,10.70
2019-05-26T18:56:25.575Z,10.70
2019-05-26T18:58:54.436Z,10.70
2019-05-26T19:01:23.370Z,10.60
2019-05-26T19:03:52.184Z,10.60
2019-05-26T19:06:21.048Z,10.50
2019-05-26T19:08:49.950Z,10.50
2019-05-26T19:11:18.849Z,10.50
2019-05-26T19:13:47.733Z,10.50
2019-05-26T19:16:16.641Z,10.40
2019-05-26T19:18:45.491Z,10.40
2019-05-26T19:21:14.496Z,10.40
2019-05-26T19:23:43.417Z,10.40
2019-05-26T19:26:12.362Z,10.30
2019-05-26T19:28:41.506Z,10.30
2019-05-26T19:31:11.371Z,10.30
2019-05-26T19:33:40.239Z,10.30
2019-05-26T19:36:09.847Z,10.20
2019-05-26T19:38:38.926Z,10.20
2019-05-26T19:41:07.838Z,10.20
2019-05-26T19:43:36.708Z,10.20
2019-05-26T19:46:05.959Z,10.20
2019-05-26T19:48:37.060Z,10.20
2019-05-26T19:51:05.926Z,10.20
2019-05-26T19:53:34.809Z,10.20
2019-05-26T19:56:03.828Z,10.10
2019-05-26T19:58:34.235Z,10.10
2019-05-26T20:01:04.573Z,10.00
2019-05-26T20:03:39.819Z,10.10
2019-05-26T20:06:18.278Z,10.00
2019-05-26T20:08:49.124Z,10.00
2019-05-26T20:11:31.382Z,10.00
2019-05-26T20:14:07.461Z,10.00
2019-05-26T20:16:36.536Z,10.00
2019-05-26T20:19:10.596Z,10.00
2019-05-26T20:21:41.179Z,9.90
2019-05-26T20:24:11.512Z,9.90
2019-05-26T20:27:06.122Z,9.90
2019-05-26T20:29:13.970Z,9.90
2019-05-26T20:31:42.885Z,9.90
2019-05-26T20:34:12.177Z,9.90
2019-05-26T20:36:47.138Z,9.90
2019-05-26T20:39:18.538Z,9.80
2019-05-26T20:41:48.025Z,9.80
2019-05-26T20:44:17.081Z,9.80
2019-05-26T20:46:54.270Z,9.80
2019-05-26T20:50:00.526Z,9.80
2019-05-26T20:58:17.625Z,9.80
2019-05-26T21:01:13.825Z,9.80
2019-05-26T21:03:54.338Z,9.70
2019-05-26T21:06:41.735Z,9.70
2019-05-26T21:12:06.816Z,9.70
2019-05-26T21:14:35.770Z,9.60
2019-05-26T21:17:05.017Z,9.60
2019-05-26T21:19:33.901Z,9.60
2019-05-26T21:22:03.005Z,9.60
2019-05-26T21:24:31.866Z,9.60
2019-05-26T21:27:00.779Z,9.60
2019-05-26T21:29:30.036Z,9.60
2019-05-26T21:31:58.898Z,9.60
2019-05-26T21:34:28.084Z,9.60
2019-05-26T21:36:56.931Z,9.60
2019-05-26T21:39:25.767Z,9.60
2019-05-26T21:41:54.649Z,9.60
2019-05-26T21:44:23.497Z,9.50
2019-05-26T21:46:52.375Z,9.60
2019-05-26T21:49:21.223Z,9.60
2019-05-26T21:51:50.480Z,9.60
2019-05-26T21:54:19.751Z,9.60
2019-05-26T21:56:48.889Z,9.60
2019-05-26T21:59:17.743Z,9.60
2019-05-26T22:01:46.662Z,9.60
2019-05-26T22:04:15.517Z,9.70
2019-05-26T22:06:44.401Z,9.60
2019-05-26T22:09:13.272Z,9.60
2019-05-26T22:11:42.122Z,9.60
2019-05-26T22:14:11.653Z,9.60
2019-05-26T22:16:40.491Z,9.60
2019-05-26T22:19:09.383Z,9.60
2019-05-26T22:21:38.574Z,9.60
2019-05-26T22:24:07.741Z,9.60
2019-05-26T22:26:36.629Z,9.60
2019-05-26T22:29:05.480Z,9.60
2019-05-26T22:31:34.308Z,9.60
2019-05-26T22:34:03.563Z,9.60
2019-05-26T22:36:32.412Z,9.60
2019-05-26T22:39:01.255Z,9.60
2019-05-26T22:41:30.193Z,9.60
2019-05-26T22:43:59.029Z,9.60
2019-05-26T22:46:27.859Z,9.60
2019-05-26T22:48:56.730Z,9.60
2019-05-26T22:51:26.303Z,9.60
2019-05-26T22:53:55.177Z,9.60
2019-05-26T22:56:24.502Z,9.60
2019-05-26T22:58:53.381Z,9.60
2019-05-26T23:01:22.527Z,9.60
2019-05-26T23:03:51.369Z,9.60
2019-05-26T23:06:20.281Z,9.50
2019-05-26T23:08:49.099Z,9.50
2019-05-26T23:11:18.323Z,9.50
2019-05-26T23:13:47.533Z,9.50
2019-05-26T23:16:16.719Z,9.50
2019-05-26T23:18:45.567Z,9.50
2019-05-26T23:21:14.475Z,9.40
2019-05-26T23:23:43.419Z,9.40
2019-05-26T23:26:12.259Z,9.40
2019-05-26T23:28:41.269Z,9.30
2019-05-26T23:31:10.123Z,9.30
2019-05-26T23:33:39.003Z,9.30
2019-05-26T23:36:08.260Z,9.20
2019-05-26T23:38:37.099Z,9.20
2019-05-26T23:41:06.360Z,9.20
2019-05-26T23:43:35.259Z,9.10
2019-05-26T23:46:04.430Z,9.10
2019-05-26T23:48:33.248Z,9.10
2019-05-26T23:51:02.128Z,9.00
2019-05-26T23:53:31.318Z,9.00
2019-05-26T23:56:00.639Z,9.00
2019-05-26T23:58:29.806Z,9.00
